createdAt,value
2019-02-20T00:00:57.457Z,82.11
2019-02-20T00:01:56.928Z,81.94
2019-02-20T00:02:56.750Z,81.7
2019-02-20T00:03:56.934Z,81.65
2019-02-20T00:04:57.128Z,81.75
2019-02-20T00:05:56.944Z,81.65
2019-02-20T00:06:56.958Z,81.7
2019-02-20T00:07:56.910Z,81.63
2019-02-20T00:08:57.011Z,81.86
2019-02-20T00:09:56.976Z,81.79
2019-02-20T00:10:56.983Z,82.3
2019-02-20T00:11:57.088Z,82.42
2019-02-20T00:12:57.104Z,82.16
2019-02-20T00:13:56.665Z,82.08
2019-02-20T00:14:56.899Z,82.04
2019-02-20T00:15:57.539Z,81.85
2019-02-20T00:16:57.650Z,82.08
2019-02-20T00:17:57.136Z,82
2019-02-20T00:18:56.680Z,81.87
2019-02-20T00:19:56.715Z,82.04
2019-02-20T00:20:57.055Z,82.02
2019-02-20T00:21:56.668Z,82.41
2019-02-20T00:22:56.735Z,82.2
2019-02-20T00:23:58.497Z,82.25
2019-02-20T00:24:57.184Z,82.27
2019-02-20T00:25:57.083Z,82.44
2019-02-20T00:26:56.696Z,82.73
2019-02-20T00:27:56.949Z,82.61
2019-02-20T00:28:56.778Z,82.32
2019-02-20T00:29:56.753Z,82.8
2019-02-20T00:30:57.021Z,82.73
2019-02-20T00:31:56.935Z,82.68
2019-02-20T00:32:56.703Z,82.97
2019-02-20T00:33:56.936Z,82.77
2019-02-20T00:34:56.939Z,82.88
2019-02-20T00:35:56.942Z,82.92
2019-02-20T00:36:56.610Z,83.1
2019-02-20T00:37:57.159Z,82.9
2019-02-20T00:38:57.170Z,82.69
2019-02-20T00:39:56.719Z,82.71
2019-02-20T00:40:57.419Z,82.45
2019-02-20T00:41:56.705Z,82.46
2019-02-20T00:42:56.663Z,82.4
2019-02-20T00:43:56.893Z,82.29
2019-02-20T00:44:56.771Z,82.48
2019-02-20T00:45:57.555Z,82.43
2019-02-20T00:46:56.915Z,82.86
2019-02-20T00:47:57.330Z,83.35
2019-02-20T00:48:57.029Z,83.18
2019-02-20T00:49:57.037Z,82.84
2019-02-20T00:50:57.490Z,83.28
2019-02-20T00:51:56.849Z,83.24
2019-02-20T00:52:56.766Z,83.75
2019-02-20T00:53:56.578Z,83.85
2019-02-20T00:54:56.612Z,83.98
2019-02-20T00:55:56.908Z,83.85
2019-02-20T00:56:56.700Z,83.47
2019-02-20T00:57:56.584Z,83.49
2019-02-20T00:58:57.508Z,83.43
2019-02-20T00:59:57.708Z,83.38
2019-02-20T01:00:56.705Z,83.45
2019-02-20T01:01:56.626Z,83.25
2019-02-20T01:02:56.915Z,83.3
2019-02-20T01:03:56.579Z,83.31
2019-02-20T01:04:56.609Z,83.67
2019-02-20T01:05:57.539Z,83.91
2019-02-20T01:06:56.711Z,83.71
2019-02-20T01:07:57.054Z,83.79
2019-02-20T01:08:56.604Z,83.89
2019-02-20T01:09:56.709Z,83.94
2019-02-20T01:10:56.727Z,83.77
2019-02-20T01:11:57.190Z,83.56
2019-02-20T01:12:56.572Z,83.23
2019-02-20T01:13:56.785Z,83.32
2019-02-20T01:14:56.540Z,83.04
2019-02-20T01:15:56.701Z,82.95
2019-02-20T01:16:56.736Z,83.03
2019-02-20T01:17:57.120Z,82.97
2019-02-20T01:18:58.434Z,83.29
2019-02-20T01:19:56.559Z,83.6
2019-02-20T01:20:57.508Z,84.19
2019-02-20T01:21:57.567Z,84.29
2019-02-20T01:22:59.758Z,84.64
2019-02-20T01:23:57.257Z,84.31
2019-02-20T01:24:56.578Z,83.94
2019-02-20T01:25:56.528Z,84.24
2019-02-20T01:26:56.647Z,83.72
2019-02-20T01:27:58.259Z,83.3
2019-02-20T01:28:56.985Z,83.3
2019-02-20T01:29:56.902Z,83.46
2019-02-20T01:30:56.579Z,83.32
2019-02-20T01:31:57.108Z,83.28
2019-02-20T01:32:56.811Z,83.09
2019-02-20T01:33:56.663Z,83.1
2019-02-20T01:34:56.607Z,83.02
2019-02-20T01:35:57.542Z,82.96
2019-02-20T01:36:56.864Z,83.08
2019-02-20T01:37:56.532Z,83.29
2019-02-20T01:38:56.642Z,83.38
2019-02-20T01:39:56.903Z,83.46
2019-02-20T01:40:56.648Z,83.52
2019-02-20T01:41:57.167Z,83.41
2019-02-20T01:42:57.390Z,83.61
2019-02-20T01:43:58.001Z,83.63
2019-02-20T01:44:56.793Z,83.79
2019-02-20T01:45:56.567Z,83.77
2019-02-20T01:46:58.650Z,83.44
2019-02-20T01:47:56.870Z,83.49
2019-02-20T01:48:56.668Z,84
2019-02-20T01:49:56.613Z,84.55
2019-02-20T01:50:56.533Z,83.96
2019-02-20T01:51:57.957Z,84.6
2019-02-20T01:52:56.599Z,84.51
2019-02-20T01:53:56.544Z,85.24
2019-02-20T01:54:56.861Z,84.96
2019-02-20T01:55:56.557Z,86.02
2019-02-20T01:56:57.260Z,85.94
2019-02-20T01:57:56.776Z,86.5
2019-02-20T01:58:56.609Z,86.24
2019-02-20T01:59:56.783Z,87.27
2019-02-20T02:00:56.648Z,87.29
2019-02-20T02:01:57.108Z,87.59
2019-02-20T02:02:56.910Z,86.97
2019-02-20T02:03:56.806Z,86.89
2019-02-20T02:04:57.430Z,86.48
2019-02-20T02:05:56.524Z,86.25
2019-02-20T02:06:56.848Z,87.44
2019-02-20T02:07:56.609Z,86.83
2019-02-20T02:08:56.942Z,87
2019-02-20T02:09:56.845Z,86.94
2019-02-20T02:10:56.595Z,87.17
2019-02-20T02:11:56.545Z,87.45
2019-02-20T02:12:58.325Z,86.88
2019-02-20T02:13:56.870Z,87.14
2019-02-20T02:14:56.517Z,87.36
2019-02-20T02:15:57.702Z,86.99
2019-02-20T02:16:56.461Z,86.55
2019-02-20T02:17:56.624Z,87.24
2019-02-20T02:18:56.563Z,86.89
2019-02-20T02:19:57.507Z,86.71
2019-02-20T02:20:56.607Z,86.2
2019-02-20T02:21:56.824Z,86.58
2019-02-20T02:22:57.052Z,86.6
2019-02-20T02:23:58.352Z,86.29
2019-02-20T02:24:56.565Z,86.38
2019-02-20T02:25:58.313Z,86.63
2019-02-20T02:26:57.412Z,86.92
2019-02-20T02:27:56.485Z,86.81
2019-02-20T02:28:56.768Z,86.88
2019-02-20T02:29:57.194Z,86.32
2019-02-20T02:30:56.619Z,86.9
2019-02-20T02:31:56.787Z,86.57
2019-02-20T02:32:57.338Z,86.56
2019-02-20T02:33:58.299Z,86.2
2019-02-20T02:34:56.532Z,86.26
2019-02-20T02:35:56.914Z,86.72
2019-02-20T02:36:56.509Z,86.69
2019-02-20T02:37:56.933Z,86.37
2019-02-20T02:38:56.815Z,86.41
2019-02-20T02:39:56.736Z,86.66
2019-02-20T02:40:56.513Z,86.97
2019-02-20T02:41:56.468Z,86.4
2019-02-20T02:42:56.549Z,86.44
2019-02-20T02:43:57.090Z,85.98
2019-02-20T02:44:56.441Z,86.42
2019-02-20T02:45:56.879Z,86.68
2019-02-20T02:46:56.885Z,86.23
2019-02-20T02:47:56.788Z,86.31
2019-02-20T02:48:58.304Z,86.43
2019-02-20T02:49:56.802Z,86.32
2019-02-20T02:50:56.435Z,86.26
2019-02-20T02:51:56.460Z,86.85
2019-02-20T02:52:56.718Z,86.9
2019-02-20T02:53:56.451Z,86.21
2019-02-20T02:54:58.285Z,86.02
2019-02-20T02:55:56.392Z,85.79
2019-02-20T02:56:56.830Z,86.67
2019-02-20T02:57:56.854Z,86.8
2019-02-20T02:58:58.253Z,86.83
2019-02-20T02:59:56.464Z,86.54
2019-02-20T03:00:56.403Z,86.06
2019-02-20T03:01:58.275Z,86.1
2019-02-20T03:02:56.682Z,86.3
2019-02-20T03:03:56.396Z,86.95
2019-02-20T03:04:56.802Z,86.96
2019-02-20T03:05:56.506Z,86.51
2019-02-20T03:06:56.655Z,87.24
2019-02-20T03:07:56.472Z,86.98
2019-02-20T03:08:57.044Z,86.98
2019-02-20T03:09:56.626Z,86.97
2019-02-20T03:10:57.356Z,86.78
2019-02-20T03:11:56.747Z,86.94
2019-02-20T03:12:56.620Z,86.91
2019-02-20T03:13:56.365Z,86.5
2019-02-20T03:14:56.436Z,86.92
2019-02-20T03:15:56.670Z,86.97
2019-02-20T03:16:56.573Z,86.66
2019-02-20T03:17:56.982Z,87.49
2019-02-20T03:18:56.796Z,87.5
2019-02-20T03:19:56.505Z,87.21
2019-02-20T03:20:58.235Z,87.51
2019-02-20T03:21:56.539Z,86.94
2019-02-20T03:22:56.390Z,86.88
2019-02-20T03:23:56.967Z,86.69
2019-02-20T03:24:58.222Z,86.58
2019-02-20T03:25:56.443Z,86.81
2019-02-20T03:26:56.698Z,86.54
2019-02-20T03:27:56.439Z,86.45
2019-02-20T03:28:56.451Z,86.57
2019-02-20T03:29:56.520Z,86.46
2019-02-20T03:30:56.442Z,86.69
2019-02-20T03:31:56.480Z,86.83
2019-02-20T03:32:58.015Z,86.57
2019-02-20T03:33:56.705Z,86.41
2019-02-20T03:34:56.495Z,86.31
2019-02-20T03:35:56.487Z,86.19
2019-02-20T03:36:56.472Z,86.47
2019-02-20T03:37:56.400Z,86.26
2019-02-20T03:38:56.570Z,86.4
2019-02-20T03:39:56.442Z,86.32
2019-02-20T03:40:56.940Z,86.51
2019-02-20T03:41:56.499Z,86.43
2019-02-20T03:42:58.273Z,86.85
2019-02-20T03:43:56.190Z,86.89
2019-02-20T03:44:56.166Z,86.6
2019-02-20T03:45:56.180Z,86.59
2019-02-20T03:46:56.183Z,86.3
2019-02-20T03:47:56.168Z,86.37
2019-02-20T03:48:56.392Z,86.33
2019-02-20T03:49:56.379Z,86.33
2019-02-20T03:50:56.365Z,86.78
2019-02-20T03:51:57.017Z,87.19
2019-02-20T03:52:56.468Z,87.04
2019-02-20T03:53:56.713Z,86.95
2019-02-20T03:54:56.930Z,86.85
2019-02-20T03:55:58.168Z,87.16
2019-02-20T03:56:56.347Z,87.3
2019-02-20T03:57:56.636Z,87
2019-02-20T03:58:56.864Z,87.53
2019-02-20T03:59:56.553Z,87.58
2019-02-20T04:00:56.676Z,87.45
2019-02-20T04:01:56.419Z,87.51
2019-02-20T04:02:56.384Z,87.6
2019-02-20T04:03:56.679Z,87.84
2019-02-20T04:04:56.681Z,88.66
2019-02-20T04:05:56.919Z,87.95
2019-02-20T04:06:56.592Z,88.43
2019-02-20T04:07:56.377Z,88.81
2019-02-20T04:08:56.499Z,88.58
2019-02-20T04:09:56.396Z,88.69
2019-02-20T04:10:56.447Z,88.49
2019-02-20T04:11:56.325Z,88.9
2019-02-20T04:12:56.607Z,88.63
2019-02-20T04:13:56.435Z,88.59
2019-02-20T04:14:56.382Z,88.62
2019-02-20T04:15:56.409Z,88.63
2019-02-20T04:16:57.330Z,88.64
2019-02-20T04:17:56.974Z,88.65
2019-02-20T04:18:56.710Z,88.67
2019-02-20T04:19:56.294Z,88.26
2019-02-20T04:20:56.332Z,88.22
2019-02-20T04:21:56.692Z,88.41
2019-02-20T04:22:57.333Z,88.59
2019-02-20T04:24:02.151Z,89.18
2019-02-20T04:24:56.584Z,89.08
2019-02-20T04:25:58.160Z,88.75
2019-02-20T04:26:56.290Z,88.68
2019-02-20T04:27:56.263Z,88.97
2019-02-20T04:28:56.643Z,89.46
2019-02-20T04:29:56.489Z,89.06
2019-02-20T04:30:56.542Z,89.03
2019-02-20T04:31:56.659Z,88.84
2019-02-20T04:32:58.377Z,88.46
2019-02-20T04:33:56.305Z,89.11
2019-02-20T04:34:56.302Z,88.9
2019-02-20T04:35:56.583Z,88.74
2019-02-20T04:36:56.483Z,89.18
2019-02-20T04:37:56.117Z,89.52
2019-02-20T04:38:56.295Z,88.87
2019-02-20T04:39:56.433Z,89.08
2019-02-20T04:40:56.273Z,89
2019-02-20T04:41:56.623Z,89.34
2019-02-20T04:42:58.445Z,89.33
2019-02-20T04:43:56.269Z,88.98
2019-02-20T04:44:56.638Z,88.94
2019-02-20T04:45:56.853Z,89.28
2019-02-20T04:46:56.568Z,88.94
2019-02-20T04:47:56.454Z,88.97
2019-02-20T04:48:57.048Z,89.14
2019-02-20T04:49:56.214Z,89.25
2019-02-20T04:50:56.582Z,88.92
2019-02-20T04:51:57.097Z,88.84
2019-02-20T04:52:56.690Z,89.54
2019-02-20T04:53:56.413Z,88.96
2019-02-20T04:54:56.378Z,89.12
2019-02-20T04:55:56.514Z,89.95
2019-02-20T04:56:56.348Z,89.22
2019-02-20T04:57:56.304Z,89.46
2019-02-20T04:58:56.642Z,88.97
2019-02-20T04:59:56.537Z,89.37
2019-02-20T05:00:57.051Z,88.76
2019-02-20T05:01:58.076Z,89.48
2019-02-20T05:02:56.558Z,90
2019-02-20T05:03:56.566Z,89.3
2019-02-20T05:04:57.777Z,89.64
2019-02-20T05:05:56.384Z,89.43
2019-02-20T05:06:56.700Z,89.17
2019-02-20T05:07:56.450Z,89.19
2019-02-20T05:08:57.725Z,88.95
2019-02-20T05:09:56.454Z,89.01
2019-02-20T05:10:56.373Z,88.89
2019-02-20T05:11:56.411Z,88.83
2019-02-20T05:12:56.330Z,89
2019-02-20T05:13:56.206Z,88.84
2019-02-20T05:14:56.214Z,88.78
2019-02-20T05:15:56.202Z,89.21
2019-02-20T05:16:56.775Z,89.26
2019-02-20T05:17:56.558Z,89.59
2019-02-20T05:18:56.282Z,89.17
2019-02-20T05:19:56.355Z,89.04
2019-02-20T05:20:56.652Z,89.3
2019-02-20T05:21:56.160Z,88.99
2019-02-20T05:22:56.498Z,88.93
2019-02-20T05:23:56.900Z,89.67
2019-02-20T05:24:56.302Z,89.26
2019-02-20T05:25:56.230Z,89.54
2019-02-20T05:26:56.351Z,90.11
2019-02-20T05:27:57.180Z,89.11
2019-02-20T05:28:56.280Z,88.92
2019-02-20T05:29:56.424Z,88.79
2019-02-20T05:30:56.226Z,88.86
2019-02-20T05:31:56.246Z,89.3
2019-02-20T05:32:56.313Z,88.76
2019-02-20T05:33:56.566Z,88.58
2019-02-20T05:34:56.974Z,88.35
2019-02-20T05:35:56.137Z,88.86
2019-02-20T05:36:56.217Z,88.51
2019-02-20T05:37:56.330Z,88.66
2019-02-20T05:38:56.307Z,88.63
2019-02-20T05:39:56.272Z,88.51
2019-02-20T05:40:56.173Z,90.11
2019-02-20T05:41:56.708Z,89.99
2019-02-20T05:42:56.221Z,89.53
2019-02-20T05:43:56.618Z,88.87
2019-02-20T05:44:56.425Z,88.62
2019-02-20T05:45:57.088Z,88.83
2019-02-20T05:46:56.221Z,88.86
2019-02-20T05:47:56.288Z,88.49
2019-02-20T05:48:57.572Z,88.89
2019-02-20T05:49:58.008Z,88.85
2019-02-20T05:50:56.235Z,88.9
2019-02-20T05:51:56.836Z,88.62
2019-02-20T05:52:56.162Z,88.77
2019-02-20T05:53:56.256Z,88.51
2019-02-20T05:54:56.381Z,88.57
2019-02-20T05:55:56.148Z,89.01
2019-02-20T05:56:56.310Z,89.03
2019-02-20T05:57:56.205Z,89.44
2019-02-20T05:58:56.610Z,89.67
2019-02-20T05:59:56.345Z,89.74
2019-02-20T06:00:56.156Z,90.05
2019-02-20T06:01:56.193Z,89.84
2019-02-20T06:02:57.997Z,90.32
2019-02-20T06:03:56.341Z,89.49
2019-02-20T06:04:56.226Z,89.47
2019-02-20T06:05:57.979Z,89.64
2019-02-20T06:06:56.127Z,89.5
2019-02-20T06:07:57.133Z,89.64
2019-02-20T06:08:56.890Z,90.14
2019-02-20T06:09:56.271Z,89.91
2019-02-20T06:10:56.233Z,90.31
2019-02-20T06:11:56.401Z,89.91
2019-02-20T06:12:56.431Z,90.31
2019-02-20T06:13:56.256Z,90.21
2019-02-20T06:14:56.156Z,90.17
2019-02-20T06:15:56.426Z,90.34
2019-02-20T06:16:57.948Z,90.34
2019-02-20T06:17:56.223Z,90.25
2019-02-20T06:18:56.090Z,89.97
2019-02-20T06:19:57.069Z,90.28
2019-02-20T06:20:56.457Z,90.26
2019-02-20T06:21:56.200Z,90.24
2019-02-20T06:22:56.488Z,90.65
2019-02-20T06:23:56.207Z,91.48
2019-02-20T06:24:56.232Z,91.03
2019-02-20T06:25:56.226Z,91.06
2019-02-20T06:26:57.939Z,90.89
2019-02-20T06:27:56.517Z,91.49
2019-02-20T06:28:56.672Z,91.65
2019-02-20T06:29:56.719Z,91.37
2019-02-20T06:30:57.086Z,91.36
2019-02-20T06:31:56.119Z,91.01
2019-02-20T06:32:56.286Z,91.81
2019-02-20T06:33:56.307Z,91.95
2019-02-20T06:34:56.239Z,91.35
2019-02-20T06:35:56.172Z,91.66
2019-02-20T06:36:56.358Z,91.49
2019-02-20T06:37:56.073Z,91.96
2019-02-20T06:38:56.472Z,92.09
2019-02-20T06:39:57.933Z,91.5
2019-02-20T06:40:56.698Z,91.9
2019-02-20T06:41:56.268Z,91.52
2019-02-20T06:42:56.604Z,91.42
2019-02-20T06:43:56.527Z,92.23
2019-02-20T06:44:56.109Z,91.84
2019-02-20T06:45:56.311Z,91.83
2019-02-20T06:46:56.267Z,92.52
2019-02-20T06:47:56.633Z,92.61
2019-02-20T06:48:56.856Z,92.04
2019-02-20T06:49:56.207Z,92.62
2019-02-20T06:50:56.096Z,92.08
2019-02-20T06:51:57.114Z,92.11
2019-02-20T06:52:57.283Z,91.78
2019-02-20T06:53:56.094Z,92.79
2019-02-20T06:54:57.175Z,92.76
2019-02-20T06:55:56.304Z,92.56
2019-02-20T06:56:56.391Z,92.47
2019-02-20T06:57:56.961Z,91.95
2019-02-20T06:58:56.125Z,92.12
2019-02-20T06:59:56.973Z,92.43
2019-02-20T07:00:56.110Z,92.14
2019-02-20T07:01:56.528Z,92.49
2019-02-20T07:02:56.068Z,91.68
2019-02-20T07:03:56.329Z,92.04
2019-02-20T07:04:56.106Z,91.82
2019-02-20T07:05:56.339Z,91.63
2019-02-20T07:06:56.052Z,91.49
2019-02-20T07:07:57.901Z,91.3
2019-02-20T07:08:56.571Z,91.2
2019-02-20T07:09:56.273Z,91.71
2019-02-20T07:10:57.779Z,91.99
2019-02-20T07:11:56.061Z,92.17
2019-02-20T07:12:56.078Z,92.02
2019-02-20T07:13:56.821Z,92.18
2019-02-20T07:14:56.827Z,92.03
2019-02-20T07:15:56.780Z,92.33
2019-02-20T07:16:56.157Z,92.65
2019-02-20T07:17:56.068Z,92.71
2019-02-20T07:18:57.906Z,92.64
2019-02-20T07:19:56.052Z,92.17
2019-02-20T07:20:56.068Z,92.36
2019-02-20T07:21:56.348Z,92.09
2019-02-20T07:22:56.662Z,92.92
2019-02-20T07:23:56.143Z,93.5
2019-02-20T07:25:02.767Z,93.18
2019-02-20T07:25:57.210Z,93.11
2019-02-20T07:26:56.272Z,92.95
2019-02-20T07:27:56.377Z,92.76
2019-02-20T07:28:56.285Z,93.47
2019-02-20T07:29:55.995Z,93.37
2019-02-20T07:30:56.198Z,93.19
2019-02-20T07:31:56.134Z,93.39
2019-02-20T07:32:56.036Z,93.27
2019-02-20T07:33:56.534Z,93.39
2019-02-20T07:34:56.540Z,93.95
2019-02-20T07:35:56.867Z,93.35
2019-02-20T07:36:56.902Z,93.91
2019-02-20T07:37:56.040Z,93.24
2019-02-20T07:38:56.283Z,93.12
2019-02-20T07:39:57.337Z,93.27
2019-02-20T07:40:56.103Z,93.23
2019-02-20T07:41:56.089Z,93.21
2019-02-20T07:42:56.091Z,93.16
2019-02-20T07:43:56.071Z,93.31
2019-02-20T07:44:55.974Z,93.06
2019-02-20T07:45:56.513Z,93.28
2019-02-20T07:46:56.420Z,93.12
2019-02-20T07:47:57.030Z,93.14
2019-02-20T07:48:56.060Z,92.64
2019-02-20T07:49:56.148Z,93.46
2019-02-20T07:50:56.080Z,93.03
2019-02-20T07:51:56.102Z,92.82
2019-02-20T07:52:56.037Z,92.66
2019-02-20T07:53:57.840Z,92.84
2019-02-20T07:54:55.968Z,92.97
2019-02-20T07:55:56.841Z,93.63
2019-02-20T07:56:56.367Z,94.07
2019-02-20T07:57:55.990Z,93.08
2019-02-20T07:58:56.597Z,92.64
2019-02-20T07:59:55.994Z,92.42
2019-02-20T08:00:57.003Z,92.3
2019-02-20T08:01:56.040Z,92.35
2019-02-20T08:02:56.096Z,92.06
2019-02-20T08:03:56.029Z,92.68
2019-02-20T08:04:56.233Z,92.42
2019-02-20T08:05:56.009Z,92.51
2019-02-20T08:06:56.436Z,92.72
2019-02-20T08:07:56.812Z,92.01
2019-02-20T08:08:55.974Z,92.29
2019-02-20T08:09:56.160Z,92.37
2019-02-20T08:10:56.128Z,92.92
2019-02-20T08:11:56.280Z,92.92
2019-02-20T08:12:56.377Z,92.57
2019-02-20T08:13:55.932Z,92.97
2019-02-20T08:14:56.490Z,92.48
2019-02-20T08:15:56.560Z,92.75
2019-02-20T08:16:56.021Z,92.23
2019-02-20T08:17:56.216Z,93.1
2019-02-20T08:18:56.308Z,93.26
2019-02-20T08:19:56.826Z,93.15
2019-02-20T08:20:56.580Z,93.2
2019-02-20T08:21:56.124Z,92.97
2019-02-20T08:22:55.913Z,92.94
2019-02-20T08:23:56.242Z,93.16
2019-02-20T08:24:55.973Z,93.57
2019-02-20T08:25:55.975Z,93.16
2019-02-20T08:26:55.947Z,93.2
2019-02-20T08:27:55.962Z,93.26
2019-02-20T08:28:55.923Z,93.75
2019-02-20T08:29:56.107Z,93.6
2019-02-20T08:30:56.184Z,93.01
2019-02-20T08:31:56.502Z,92.98
2019-02-20T08:32:57.223Z,93.32
2019-02-20T08:33:56.307Z,93.16
2019-02-20T08:34:55.961Z,93.03
2019-02-20T08:35:56.322Z,93.27
2019-02-20T08:36:56.021Z,93.33
2019-02-20T08:37:56.130Z,93.35
2019-02-20T08:38:56.235Z,92.95
2019-02-20T08:39:56.054Z,93.14
2019-02-20T08:40:55.954Z,93.15
2019-02-20T08:41:56.358Z,93.49
2019-02-20T08:42:56.939Z,93.81
2019-02-20T08:43:56.283Z,93.5
2019-02-20T08:44:56.490Z,92.86
2019-02-20T08:45:55.914Z,93.29
2019-02-20T08:46:56.289Z,93.2
2019-02-20T08:47:56.024Z,93.09
2019-02-20T08:48:56.124Z,92.83
2019-02-20T08:49:56.749Z,92.67
2019-02-20T08:50:56.055Z,92.84
2019-02-20T08:51:57.721Z,92.94
2019-02-20T08:52:56.328Z,93.09
2019-02-20T08:53:56.249Z,92.63
2019-02-20T08:54:56.010Z,92.99
2019-02-20T08:55:56.044Z,93.53
2019-02-20T08:56:57.712Z,93.19
2019-02-20T08:57:55.691Z,93.24
2019-02-20T08:58:55.708Z,92.71
2019-02-20T08:59:56.071Z,92.77
2019-02-20T09:00:56.074Z,92.56
2019-02-20T09:01:55.959Z,92.88
2019-02-20T09:02:56.091Z,92.57
2019-02-20T09:03:56.748Z,92.67
2019-02-20T09:04:56.872Z,92.36
2019-02-20T09:05:56.211Z,92.37
2019-02-20T09:06:56.307Z,91.91
2019-02-20T09:07:56.045Z,91.71
2019-02-20T09:08:56.128Z,91.89
2019-02-20T09:09:55.976Z,92.18
2019-02-20T09:10:56.655Z,91.77
2019-02-20T09:11:55.848Z,91.62
2019-02-20T09:12:56.465Z,91.78
2019-02-20T09:13:56.059Z,91.73
2019-02-20T09:14:55.847Z,91.82
2019-02-20T09:15:56.490Z,92.07
2019-02-20T09:16:56.388Z,91.63
2019-02-20T09:17:55.667Z,91.9
2019-02-20T09:18:55.889Z,91.39
2019-02-20T09:19:56.079Z,91.64
2019-02-20T09:20:56.126Z,91.27
2019-02-20T09:21:56.113Z,91.42
2019-02-20T09:22:56.018Z,91.08
2019-02-20T09:23:56.335Z,91.33
2019-02-20T09:24:56.746Z,91.39
2019-02-20T09:25:57.683Z,91.2
2019-02-20T09:26:56.843Z,91.15
2019-02-20T09:27:56.746Z,91.26
2019-02-20T09:28:56.697Z,90.84
2019-02-20T09:29:55.985Z,90.98
2019-02-20T09:30:57.651Z,91.2
2019-02-20T09:31:56.080Z,91.05
2019-02-20T09:32:55.993Z,91.05
2019-02-20T09:33:56.709Z,90.62
2019-02-20T09:34:56.030Z,90.59
2019-02-20T09:35:56.007Z,91.06
2019-02-20T09:36:56.664Z,90.55
2019-02-20T09:37:56.043Z,90.49
2019-02-20T09:38:56.022Z,90.3
2019-02-20T09:39:56.335Z,89.96
2019-02-20T09:40:56.032Z,90.24
2019-02-20T09:41:56.051Z,90.4
2019-02-20T09:42:55.880Z,90.27
2019-02-20T09:43:55.954Z,89.81
2019-02-20T09:44:57.642Z,89.8
2019-02-20T09:45:55.970Z,89.53
2019-02-20T09:46:55.976Z,89.74
2019-02-20T09:47:57.660Z,89.37
2019-02-20T09:48:56.504Z,89.11
2019-02-20T09:49:55.997Z,89.11
2019-02-20T09:50:55.908Z,89.62
2019-02-20T09:51:56.108Z,89.4
2019-02-20T09:52:56.119Z,89.18
2019-02-20T09:53:56.128Z,89.48
2019-02-20T09:54:55.788Z,89.25
2019-02-20T09:55:55.880Z,88.97
2019-02-20T09:56:56.039Z,88.86
2019-02-20T09:57:56.815Z,89.2
2019-02-20T09:58:56.066Z,88.95
2019-02-20T09:59:57.619Z,88.78
2019-02-20T10:00:56.176Z,88.9
2019-02-20T10:01:56.082Z,88.61
2019-02-20T10:02:57.241Z,88.21
2019-02-20T10:03:56.190Z,88.14
2019-02-20T10:04:57.624Z,87.97
2019-02-20T10:05:57.618Z,87.96
2019-02-20T10:06:56.004Z,88.01
2019-02-20T10:07:55.798Z,87.89
2019-02-20T10:08:55.944Z,87.69
2019-02-20T10:09:56.652Z,87.89
2019-02-20T10:10:55.794Z,87.59
2019-02-20T10:11:56.040Z,86.87
2019-02-20T10:12:56.158Z,86.74
2019-02-20T10:13:56.055Z,86.83
2019-02-20T10:14:55.957Z,86.7
2019-02-20T10:15:56.069Z,86.88
2019-02-20T10:16:56.072Z,86.87
2019-02-20T10:17:56.081Z,86.25
2019-02-20T10:18:56.290Z,86.33
2019-02-20T10:19:56.406Z,86.26
2019-02-20T10:20:55.731Z,85.96
2019-02-20T10:21:56.207Z,85.94
2019-02-20T10:22:55.814Z,85.69
2019-02-20T10:23:56.219Z,85.21
2019-02-20T10:24:56.026Z,85.27
2019-02-20T10:26:00.745Z,84.91
2019-02-20T10:27:00.530Z,84.33
2019-02-20T10:27:56.054Z,83.61
2019-02-20T10:28:55.947Z,84.46
2019-02-20T10:29:56.282Z,84.11
2019-02-20T10:30:55.961Z,84.25
2019-02-20T10:31:55.971Z,84.26
2019-02-20T10:32:56.282Z,84.16
2019-02-20T10:33:56.088Z,83.85
2019-02-20T10:34:55.852Z,84.14
2019-02-20T10:35:55.992Z,83.64
2019-02-20T10:36:55.777Z,84.22
2019-02-20T10:37:56.108Z,84.11
2019-02-20T10:38:56.018Z,84.18
2019-02-20T10:39:56.028Z,84.11
2019-02-20T10:40:56.340Z,84.11
2019-02-20T10:41:56.058Z,83.66
2019-02-20T10:42:56.047Z,84.21
2019-02-20T10:43:55.878Z,84.25
2019-02-20T10:44:57.547Z,83.72
2019-02-20T10:45:56.066Z,83.38
2019-02-20T10:46:56.067Z,83.54
2019-02-20T10:47:55.983Z,83.96
2019-02-20T10:48:55.715Z,83.69
2019-02-20T10:49:55.985Z,83.68
2019-02-20T10:50:56.532Z,83.61
2019-02-20T10:51:57.542Z,83.81
2019-02-20T10:52:55.862Z,83.88
2019-02-20T10:53:55.914Z,84.25
2019-02-20T10:54:57.865Z,84.02
2019-02-20T10:55:56.844Z,83.36
2019-02-20T10:56:55.930Z,83.56
2019-02-20T10:57:56.060Z,84.1
2019-02-20T10:58:56.047Z,83.66
2019-02-20T10:59:55.684Z,83.46
2019-02-20T11:00:56.062Z,83.46
2019-02-20T11:01:55.850Z,82.74
2019-02-20T11:02:56.079Z,83.03
2019-02-20T11:03:55.722Z,82.8
2019-02-20T11:04:56.554Z,82.78
2019-02-20T11:05:55.993Z,83.01
2019-02-20T11:06:56.536Z,83.21
2019-02-20T11:07:56.118Z,82.95
2019-02-20T11:08:57.528Z,83.09
2019-02-20T11:09:56.022Z,82.67
2019-02-20T11:10:55.707Z,81.73
2019-02-20T11:11:55.710Z,81.99
2019-02-20T11:12:56.165Z,82
2019-02-20T11:13:56.045Z,82.24
2019-02-20T11:14:55.949Z,82.26
2019-02-20T11:15:55.958Z,81.58
2019-02-20T11:16:56.169Z,82.03
2019-02-20T11:17:55.723Z,82.01
2019-02-20T11:18:56.650Z,81.88
2019-02-20T11:19:55.720Z,81.62
2019-02-20T11:20:55.986Z,81.31
2019-02-20T11:21:56.143Z,81.32
2019-02-20T11:22:57.496Z,81.36
2019-02-20T11:23:55.904Z,80.53
2019-02-20T11:24:55.943Z,80.72
2019-02-20T11:25:55.722Z,80.93
2019-02-20T11:26:57.151Z,80.74
2019-02-20T11:27:56.526Z,80.73
2019-02-20T11:28:55.939Z,80.97
2019-02-20T11:29:55.948Z,79.8
2019-02-20T11:30:56.899Z,80.1
2019-02-20T11:31:56.549Z,80.1
2019-02-20T11:32:55.835Z,79.56
2019-02-20T11:33:55.686Z,80.26
2019-02-20T11:34:55.987Z,79.5
2019-02-20T11:35:55.986Z,79.22
2019-02-20T11:36:56.015Z,78.95
2019-02-20T11:37:55.999Z,78.99
2019-02-20T11:38:56.214Z,78.89
2019-02-20T11:39:56.015Z,78.75
2019-02-20T11:40:56.021Z,78.11
2019-02-20T11:41:56.040Z,78.69
2019-02-20T11:42:57.463Z,78.86
2019-02-20T11:43:56.146Z,78.99
2019-02-20T11:44:55.633Z,79.45
2019-02-20T11:45:55.983Z,78.45
2019-02-20T11:46:55.781Z,78.37
2019-02-20T11:47:55.618Z,77.86
2019-02-20T11:48:55.713Z,76.79
2019-02-20T11:49:56.574Z,75.89
2019-02-20T11:50:56.655Z,75.1
2019-02-20T11:51:55.666Z,75.08
2019-02-20T11:52:55.601Z,75.46
2019-02-20T11:53:56.007Z,74.96
2019-02-20T11:54:57.127Z,75.72
2019-02-20T11:55:56.017Z,75.23
2019-02-20T11:56:56.033Z,75.32
2019-02-20T11:58:00.624Z,76.02
2019-02-20T11:58:57.430Z,75.87
2019-02-20T11:59:56.454Z,75.53
2019-02-20T12:00:56.161Z,76.55
2019-02-20T12:01:55.429Z,75.43
2019-02-20T12:02:55.862Z,73.89
2019-02-20T12:03:55.660Z,74.17
2019-02-20T12:04:56.176Z,74.99
2019-02-20T12:05:55.556Z,75.03
2019-02-20T12:06:55.742Z,74.23
2019-02-20T12:07:55.682Z,75.19
2019-02-20T12:08:55.751Z,74.62
2019-02-20T12:09:55.602Z,75.22
2019-02-20T12:10:55.680Z,74.18
2019-02-20T12:11:55.592Z,73.46
2019-02-20T12:12:56.451Z,73.53
2019-02-20T12:13:55.702Z,74.32
2019-02-20T12:14:55.421Z,73.05
2019-02-20T12:15:55.691Z,71.72
2019-02-20T12:16:55.664Z,72.52
2019-02-20T12:17:56.078Z,72.01
2019-02-20T12:18:55.660Z,72.6
2019-02-20T12:19:55.973Z,72.08
2019-02-20T12:20:55.711Z,72.01
2019-02-20T12:21:55.987Z,72.67
2019-02-20T12:22:56.315Z,72.62
2019-02-20T12:23:56.515Z,71.97
2019-02-20T12:24:59.205Z,70.81
2019-02-20T12:25:56.014Z,70.62
2019-02-20T12:26:55.586Z,71.11
2019-02-20T12:27:55.940Z,70.98
2019-02-20T12:28:56.957Z,71.49
2019-02-20T12:29:55.532Z,70.52
2019-02-20T12:30:55.960Z,70.2
2019-02-20T12:31:55.953Z,70.11
2019-02-20T12:32:55.960Z,68.63
2019-02-20T12:33:55.662Z,69.18
2019-02-20T12:34:55.696Z,68.88
2019-02-20T12:35:55.991Z,67.85
2019-02-20T12:36:55.654Z,66.39
2019-02-20T12:37:55.628Z,68.15
2019-02-20T12:38:55.795Z,65.76
2019-02-20T12:39:55.702Z,67.29
2019-02-20T12:40:55.625Z,66.48
2019-02-20T12:41:55.570Z,66.16
2019-02-20T12:42:55.759Z,66.38
2019-02-20T12:43:55.551Z,66.72
2019-02-20T12:44:58.446Z,67.79
2019-02-20T12:45:55.844Z,68.41
2019-02-20T12:46:55.579Z,67.97
2019-02-20T12:47:55.614Z,68.74
2019-02-20T12:48:55.563Z,68.26
2019-02-20T12:49:55.694Z,66.4
2019-02-20T12:50:57.362Z,66.42
2019-02-20T12:51:55.983Z,66.56
2019-02-20T12:52:55.798Z,67.4
2019-02-20T12:53:57.448Z,68.23
2019-02-20T12:54:57.352Z,67.42
2019-02-20T12:55:56.421Z,67.87